Impacts METAR Board INFO
IDs:

KLAS - Las Vegas/McCarran I, NV, US

Updated at: 2141 UTC 12 Dec 2017
Potential Impact None Slight Moderate High
Time12/09Z 12/10Z 12/11Z 12/12Z 12/13Z 12/14Z 12/15Z 12/16Z 12/17Z 12/18Z 12/19Z 12/20Z 12/21Z
VIS10 10 10 10 10 10 10 10 10 10 10 10 10
CIG-- -- -- -- -- -- -- -- -- -- -- -- --
CoverCLRCLRCLRCLRCLRCLRCLRCLRFEWFEWFEWCLRCLR
FltCatVFRVFRVFRVFRVFRVFRVFRVFRVFRVFRVFRVFRVFR
WX--------------------------
WDir210210025021023024000300000
WSpd6 4 4 4 4 3 4 0 0 3 0 0 0
WGst-- -- -- -- -- -- -- -- -- -- -- -- --
Raw hourly METARs
KLAS 120856Z 21006KT 10SM CLR 06/M19 A3036 RMK AO2 SLP279 T00561194 51004
KLAS 120956Z 21004KT 10SM CLR 05/M17 A3037 RMK AO2 SLP279 T00501172
KLAS 121056Z VRB04KT 10SM CLR 05/M19 A3037 RMK AO2 SLP280 T00501189
KLAS 121156Z 25004KT 10SM CLR 04/M18 A3036 RMK AO2 SLP278 T00441178 10083 20044 58002
KLAS 121256Z 21004KT 10SM CLR 04/M18 A3036 RMK AO2 SLP280 T00391183
KLAS 121356Z 23003KT 10SM CLR 04/M17 A3037 RMK AO2 SLP284 T00441172
KLAS 121456Z 24004KT 10SM CLR 06/M19 A3037 RMK AO2 SLP285 T00611189 53004
KLAS 121556Z 00000KT 10SM CLR 08/M18 A3038 RMK AO2 SLP289 T00781178
KLAS 121656Z 00000KT 10SM FEW250 11/M18 A3039 RMK AO2 SLP290 T01061183
KLAS 121756Z 30003KT 10SM FEW250 14/M21 A3038 RMK AO2 SLP284 T01391206 10144 20039 50001
KLAS 121856Z 00000KT 10SM FEW250 16/M19 A3034 RMK AO2 SLP270 T01611189
KLAS 121956Z 00000KT 10SM CLR 17/M18 A3029 RMK AO2 SLP254 T01721178
KLAS 122056Z 00000KT 10SM CLR 19/M18 A3025 RMK AO2 SLP237 T01891178 58041